Time;durP1;ratioP1;P1;durP2;ratioP2;P2;SDS_P1;SDS_P2;PMS_P1;PMS_P2;Temp;Humidity;BMP_temperature;BMP_pressure;BME280_temperature;BME280_humidity;BME280_pressure;Samples;Min_cycle;Max_cycle;Signal;HPM_P1;HPM_P2
2021/07/04 00:01:54;;;;;;;12.73;9.60;;;;;;;18.13;80.30;100545.53;5074022;28;20048;-70
2021/07/04 00:04:22;;;;;;;9.25;6.82;;;;;;;18.07;80.57;100557.59;5057809;28;20083;-69
2021/07/04 00:06:49;;;;;;;17.55;13.80;;;;;;;18.05;81.04;100548.06;5077950;28;20059;-69
2021/07/04 00:09:17;;;;;;;10.13;6.07;;;;;;;18.10;80.83;100551.13;5067213;28;20052;-67
2021/07/04 00:11:44;;;;;;;7.18;5.72;;;;;;;18.03;81.03;100550.88;5072231;28;20510;-68
2021/07/04 00:14:12;;;;;;;10.73;5.93;;;;;;;17.93;81.99;100548.19;5075327;28;20040;-68
2021/07/04 00:16:41;;;;;;;9.55;5.68;;;;;;;17.98;81.97;100550.44;5050199;28;20627;-69
2021/07/04 00:19:08;;;;;;;7.03;6.32;;;;;;;17.99;82.02;100549.47;5076119;28;20064;-68
2021/07/04 00:21:36;;;;;;;15.95;12.40;;;;;;;17.95;82.53;100556.88;5070709;28;20498;-70
2021/07/04 00:24:04;;;;;;;8.20;6.53;;;;;;;17.96;82.59;100555.06;5074347;28;20045;-70
2021/07/04 00:26:31;;;;;;;12.23;6.10;;;;;;;17.91;82.73;100552.81;5052170;28;20166;-69
2021/07/04 00:28:59;;;;;;;8.10;6.07;;;;;;;18.04;81.98;100547.22;5055734;28;20136;-69
2021/07/04 00:31:27;;;;;;;9.82;7.00;;;;;;;18.28;80.93;100538.81;5074267;28;20116;-68
2021/07/04 00:33:54;;;;;;;7.60;6.68;;;;;;;18.30;81.14;100542.16;5069727;28;20055;-68
2021/07/04 00:36:22;;;;;;;56.08;38.47;;;;;;;18.17;81.71;100539.78;5067654;28;20054;-71
2021/07/04 00:38:49;;;;;;;9.15;6.95;;;;;;;18.06;82.35;100536.44;5065183;28;20059;-70
2021/07/04 00:41:17;;;;;;;12.48;7.05;;;;;;;18.11;82.05;100535.03;5071044;28;20115;-69
2021/07/04 00:43:47;;;;;;;8.13;6.07;;;;;;;18.06;82.42;100531.09;5054049;28;20132;-70
2021/07/04 00:46:15;;;;;;;11.18;7.25;;;;;;;18.12;82.17;100534.03;5053302;28;20069;-68
2021/07/04 00:48:43;;;;;;;9.35;6.47;;;;;;;18.08;82.39;100532.63;5073559;28;20155;-70
2021/07/04 00:51:10;;;;;;;8.82;6.70;;;;;;;18.05;82.71;100529.41;5068617;28;20040;-70
2021/07/04 00:53:38;;;;;;;8.20;7.30;;;;;;;18.13;82.15;100530.38;5054039;28;20132;-68
2021/07/04 00:56:06;;;;;;;8.10;6.38;;;;;;;18.10;82.35;100527.16;5063565;28;20078;-69
2021/07/04 00:58:33;;;;;;;8.05;6.10;;;;;;;18.01;83.26;100531.50;5048026;28;20066;-70
2021/07/04 01:01:00;;;;;;;8.25;6.30;;;;;;;17.96;84.18;100523.94;5077374;28;20058;-69
2021/07/04 01:03:28;;;;;;;8.85;7.43;;;;;;;18.02;83.61;100522.56;5060245;28;20051;-68
2021/07/04 01:05:56;;;;;;;8.07;6.95;;;;;;;18.13;82.50;100522.38;5068384;28;20058;-69
2021/07/04 01:08:24;;;;;;;8.68;6.65;;;;;;;18.09;82.74;100526.31;5064120;28;20055;-69
2021/07/04 01:10:51;;;;;;;11.73;7.72;;;;;;;18.07;82.94;100525.63;5075660;28;20052;-69
2021/07/04 01:13:19;;;;;;;12.70;7.60;;;;;;;18.22;82.01;100521.53;5082641;28;20052;-69
2021/07/04 01:15:47;;;;;;;11.68;7.45;;;;;;;18.16;82.46;100516.78;5073489;28;20055;-69
2021/07/04 01:18:15;;;;;;;11.77;7.63;;;;;;;18.05;82.94;100524.91;5073650;28;20063;-70
2021/07/04 01:20:42;;;;;;;7.60;6.78;;;;;;;17.95;84.16;100516.09;5077235;28;20040;-69
2021/07/04 01:23:12;;;;;;;10.82;7.53;;;;;;;18.07;83.27;100522.97;5078481;28;20140;-70
2021/07/04 01:25:44;;;;;;;12.45;6.75;;;;;;;18.21;82.44;100527.03;5070119;28;20117;-70
2021/07/04 01:28:12;;;;;;;9.10;7.43;;;;;;;18.12;83.87;100523.38;5049836;28;20254;-70
2021/07/04 01:30:40;;;;;;;11.38;7.90;;;;;;;18.08;83.21;100519.31;5054308;28;20054;-69
2021/07/04 01:33:08;;;;;;;13.77;8.45;;;;;;;18.17;82.58;100526.47;5074787;28;20044;-68
2021/07/04 01:35:35;;;;;;;10.40;7.35;;;;;;;18.05;83.35;100516.94;5074745;28;20060;-68
2021/07/04 01:38:02;;;;;;;12.15;7.28;;;;;;;17.98;83.74;100515.81;5072016;28;20180;-68
2021/07/04 01:40:31;;;;;;;9.05;7.75;;;;;;;17.99;83.97;100511.34;5058111;28;20054;-69
2021/07/04 01:42:58;;;;;;;11.27;7.75;;;;;;;17.92;83.83;100511.91;5077225;28;20079;-69
2021/07/04 01:45:26;;;;;;;14.07;8.00;;;;;;;17.96;83.95;100512.44;5071071;28;20409;-69
2021/07/04 01:47:56;;;;;;;12.45;7.40;;;;;;;17.95;83.96;100508.09;5071223;28;20049;-68
2021/07/04 01:50:29;;;;;;;7.88;7.07;;;;;;;17.92;84.57;100503.91;5070559;28;20048;-68
2021/07/04 01:52:56;;;;;;;9.43;7.22;;;;;;;17.83;84.94;100511.88;5064168;28;20063;-68
2021/07/04 01:55:24;;;;;;;10.98;7.65;;;;;;;17.80;85.26;100504.19;5055348;28;20064;-68
2021/07/04 01:57:52;;;;;;;15.07;8.10;;;;;;;17.96;84.25;100512.44;5068256;28;20048;-68
2021/07/04 02:00:22;;;;;;;10.40;7.43;;;;;;;17.84;85.45;100510.94;5072739;28;20548;-69
2021/07/04 02:02:53;;;;;;;13.35;8.02;;;;;;;17.87;84.84;100507.97;5054480;28;20049;-67
2021/07/04 02:05:21;;;;;;;10.18;8.32;;;;;;;17.84;85.16;100505.59;5057532;28;20036;-70
2021/07/04 02:07:49;;;;;;;14.65;7.95;;;;;;;17.79;86.32;100510.50;5068581;28;20051;-69
2021/07/04 02:10:19;;;;;;;8.80;7.22;;;;;;;17.73;87.82;100514.50;5066084;28;20044;-69
2021/07/04 02:12:47;;;;;;;11.65;7.22;;;;;;;17.70;88.11;100517.47;5057369;28;20044;-71
2021/07/04 02:15:20;;;;;;;13.38;7.85;;;;;;;17.84;86.82;100513.59;5066871;28;20052;-69
2021/07/04 02:17:47;;;;;;;9.77;6.78;;;;;;;17.93;86.11;100510.09;5069139;28;20056;-68
2021/07/04 02:20:58;;;;;;;10.85;7.20;;;;;;;17.85;86.93;100515.25;5049959;28;20056;-68
2021/07/04 02:23:35;;;;;;;16.15;7.38;;;;;;;17.86;86.05;100504.47;5064777;28;20063;-68
2021/07/04 02:26:03;;;;;;;9.48;7.07;;;;;;;17.84;86.48;100508.25;5056344;28;20056;-69
2021/07/04 02:28:32;;;;;;;10.20;7.88;;;;;;;17.80;86.62;100512.19;5048215;28;20070;-69
2021/07/04 02:31:00;;;;;;;11.80;7.45;;;;;;;17.74;87.12;100512.72;5062365;28;20403;-67
2021/07/04 02:33:27;;;;;;;9.20;6.93;;;;;;;17.74;87.02;100518.03;5065191;28;20059;-69
2021/07/04 02:35:57;;;;;;;8.60;7.25;;;;;;;17.66;87.78;100516.91;5066196;28;20409;-68
2021/07/04 02:38:25;;;;;;;12.85;7.25;;;;;;;17.58;88.64;100514.09;5047564;28;20056;-69
2021/07/04 02:40:54;;;;;;;12.02;7.78;;;;;;;17.64;88.37;100518.00;5046406;28;20086;-69
2021/07/04 02:43:23;;;;;;;9.70;7.38;;;;;;;17.79;87.46;100518.50;5063561;28;20049;-69
2021/07/04 02:45:51;;;;;;;9.13;7.32;;;;;;;17.65;88.01;100517.88;5044511;28;20074;-68
2021/07/04 02:48:18;;;;;;;12.77;7.90;;;;;;;17.53;88.79;100511.00;5065308;28;20067;-68
2021/07/04 02:50:46;;;;;;;12.48;8.10;;;;;;;17.44;89.41;100512.66;5062487;28;20406;-68
2021/07/04 02:53:14;;;;;;;9.60;7.10;;;;;;;17.44;89.52;100518.00;5066712;28;20048;-68
2021/07/04 02:55:43;;;;;;;11.40;7.70;;;;;;;17.41;89.80;100515.59;5063471;28;20051;-69
2021/07/04 02:58:10;;;;;;;10.13;7.72;;;;;;;17.48;89.32;100517.72;5071845;28;20048;-69
2021/07/04 03:00:39;;;;;;;10.90;7.95;;;;;;;17.44;89.94;100518.00;5071834;28;20052;-69
2021/07/04 03:03:07;;;;;;;13.05;7.38;;;;;;;17.41;90.29;100517.41;5077431;28;20056;-70
2021/07/04 03:05:34;;;;;;;12.75;8.48;;;;;;;17.45;90.45;100516.16;5068123;28;20056;-69
2021/07/04 03:08:03;;;;;;;10.57;8.10;;;;;;;17.48;90.54;100510.56;5077429;28;20050;-69
2021/07/04 03:10:31;;;;;;;12.80;7.88;;;;;;;17.50;90.53;100511.25;5067766;28;20560;-69
2021/07/04 03:12:59;;;;;;;8.90;7.38;;;;;;;17.53;90.48;100508.34;5078343;28;20048;-69
2021/07/04 03:15:27;;;;;;;8.35;7.25;;;;;;;17.75;89.62;100509.09;5068538;28;20059;-69
2021/07/04 03:17:54;;;;;;;9.10;7.32;;;;;;;17.63;90.23;100516.34;5055908;28;20067;-69
2021/07/04 03:20:21;;;;;;;12.63;7.65;;;;;;;17.61;90.60;100508.50;5074316;28;20059;-69
2021/07/04 03:22:49;;;;;;;9.07;7.60;;;;;;;17.69;90.94;100511.28;5072710;28;20048;-69
2021/07/04 03:25:17;;;;;;;9.63;7.28;;;;;;;17.70;90.66;100512.16;5064671;28;20049;-69
2021/07/04 03:27:45;;;;;;;8.52;6.78;;;;;;;17.67;91.39;100515.06;5070053;28;20177;-69
2021/07/04 03:30:15;;;;;;;9.88;7.60;;;;;;;17.58;92.60;100508.75;5049441;28;20051;-69
2021/07/04 03:32:43;;;;;;;10.00;7.93;;;;;;;17.58;92.07;100510.59;5067712;28;20410;-69
2021/07/04 03:35:12;;;;;;;10.73;7.78;;;;;;;17.71;91.91;100511.16;5061964;28;20060;-69
2021/07/04 03:37:40;;;;;;;8.77;7.78;;;;;;;17.72;91.78;100516.34;5067491;28;20051;-69
2021/07/04 03:40:10;;;;;;;11.40;7.25;;;;;;;17.86;91.57;100516.94;5067902;28;20058;-69
2021/07/04 03:42:38;;;;;;;10.82;8.70;;;;;;;17.92;90.49;100505.72;5072878;28;20041;-69
2021/07/04 03:45:07;;;;;;;10.43;7.35;;;;;;;17.88;91.18;100517.66;5069202;28;20059;-70
2021/07/04 03:47:34;;;;;;;9.73;7.55;;;;;;;18.01;90.17;100517.34;5039217;28;20541;-70
2021/07/04 03:50:03;;;;;;;9.65;7.75;;;;;;;18.05;89.42;100516.94;5067594;28;20045;-70
2021/07/04 03:52:30;;;;;;;10.30;7.72;;;;;;;18.15;88.07;100514.28;5067447;28;20059;-69
2021/07/04 03:54:57;;;;;;;12.00;7.45;;;;;;;18.16;88.53;100515.94;5059993;28;20048;-70
2021/07/04 03:57:26;;;;;;;12.40;7.68;;;;;;;18.30;87.91;100515.50;5069551;28;20144;-68
2021/07/04 03:59:55;;;;;;;10.05;7.05;;;;;;;18.39;88.18;100511.16;5069872;28;20060;-70
2021/07/04 04:02:23;;;;;;;12.85;7.53;;;;;;;18.53;86.92;100502.69;5068307;28;20095;-68
2021/07/04 04:04:54;;;;;;;8.82;7.68;;;;;;;18.68;86.23;100505.72;5066944;28;20064;-70
2021/07/04 04:07:23;;;;;;;11.63;7.93;;;;;;;18.84;85.41;100507.81;5048317;28;20052;-68
2021/07/04 04:09:52;;;;;;;9.18;7.55;;;;;;;19.05;84.38;100503.09;5032911;28;20553;-69
2021/07/04 04:12:19;;;;;;;11.10;7.68;;;;;;;19.27;82.60;100511.66;5072445;28;20056;-68
2021/07/04 04:14:47;;;;;;;9.23;7.43;;;;;;;19.39;81.21;100507.81;5066444;28;20060;-69
2021/07/04 04:17:14;;;;;;;15.20;8.27;;;;;;;19.57;80.60;100511.34;5065988;28;20067;-68
2021/07/04 04:19:42;;;;;;;12.15;8.80;;;;;;;19.81;78.67;100516.09;5071692;28;20052;-70
2021/07/04 04:22:09;;;;;;;10.98;8.85;;;;;;;20.05;76.79;100515.50;5059347;28;20529;-68
2021/07/04 04:24:37;;;;;;;12.45;8.05;;;;;;;20.23;76.30;100510.97;5046863;28;20142;-69
2021/07/04 04:27:05;;;;;;;9.23;7.68;;;;;;;20.60;73.92;100504.56;5052006;28;20067;-69
2021/07/04 04:29:33;;;;;;;11.27;10.07;;;;;;;20.97;72.67;100512.25;5068037;28;20250;-69
2021/07/04 04:32:00;;;;;;;12.93;7.63;;;;;;;21.24;70.27;100513.88;5070577;28;20079;-69
2021/07/04 04:34:28;;;;;;;10.13;8.32;;;;;;;21.15;68.99;100508.66;5066802;28;20052;-69
2021/07/04 04:37:00;;;;;;;12.60;8.38;;;;;;;20.72;72.13;100514.00;5066663;28;20064;-69
2021/07/04 04:39:27;;;;;;;8.35;7.35;;;;;;;20.46;73.34;100510.47;5065423;28;20044;-68
2021/07/04 04:41:54;;;;;;;10.13;7.65;;;;;;;20.24;74.24;100504.63;5065272;28;20078;-69
2021/07/04 04:44:34;;;;;;;9.57;8.32;;;;;;;20.05;75.42;100514.66;5065885;28;20052;-69
2021/07/04 04:47:03;;;;;;;11.45;8.95;;;;;;;19.80;76.31;100518.94;5050442;28;20051;-69
2021/07/04 04:49:30;;;;;;;10.05;9.05;;;;;;;19.61;78.04;100518.09;5045776;28;20063;-68
2021/07/04 04:51:57;;;;;;;13.80;8.25;;;;;;;19.56;78.12;100520.34;5066576;28;20044;-68
2021/07/04 04:54:25;;;;;;;9.38;8.32;;;;;;;19.35;79.37;100519.78;5014092;28;20048;-68
2021/07/04 04:56:52;;;;;;;10.52;8.63;;;;;;;19.21;79.98;100516.63;5062643;28;20059;-69
2021/07/04 04:59:20;;;;;;;12.80;8.52;;;;;;;19.18;80.69;100522.28;5066638;28;20049;-68
2021/07/04 05:01:47;;;;;;;15.95;9.02;;;;;;;19.30;81.75;100520.22;5047912;28;20062;-69
2021/07/04 05:04:14;;;;;;;10.98;8.93;;;;;;;19.28;82.01;100508.88;5049430;28;20052;-68
2021/07/04 05:06:42;;;;;;;12.95;8.77;;;;;;;19.35;81.17;100512.59;5044827;28;20071;-68
2021/07/04 05:09:09;;;;;;;15.70;8.80;;;;;;;19.57;80.10;100511.34;5049339;28;20074;-68
2021/07/04 05:11:36;;;;;;;10.35;8.45;;;;;;;19.66;79.98;100515.81;5069681;28;20052;-69
2021/07/04 05:14:04;;;;;;;11.35;8.40;;;;;;;19.73;79.79;100516.88;5067205;28;20052;-68
2021/07/04 05:16:35;;;;;;;10.52;8.63;;;;;;;19.90;79.44;100517.88;5069138;28;20053;-68
2021/07/04 05:19:05;;;;;;;10.15;8.82;;;;;;;20.00;79.26;100519.63;5067285;28;20080;-71
2021/07/04 05:21:33;;;;;;;8.93;8.00;;;;;;;20.28;78.64;100523.88;5069963;28;20056;-69
2021/07/04 05:24:01;;;;;;;14.32;7.50;;;;;;;20.58;76.53;100517.25;5062331;28;20047;-71
2021/07/04 05:26:29;;;;;;;13.82;8.50;;;;;;;20.76;75.48;100519.88;5045793;28;20529;-70
2021/07/04 05:28:57;;;;;;;13.43;8.25;;;;;;;20.97;75.55;100517.63;5068117;28;20055;-70
2021/07/04 05:31:25;;;;;;;9.50;8.45;;;;;;;21.23;74.26;100517.56;5070219;28;20124;-69
2021/07/04 05:33:53;;;;;;;12.00;9.00;;;;;;;21.62;71.68;100525.06;5063123;28;20051;-70
2021/07/04 05:36:20;;;;;;;10.55;7.97;;;;;;;21.85;70.89;100527.13;5049540;28;20048;-70
2021/07/04 05:38:48;;;;;;;12.23;8.98;;;;;;;22.03;70.53;100525.13;5060707;28;20507;-68
2021/07/04 05:41:16;;;;;;;15.15;8.75;;;;;;;22.07;69.49;100525.63;5063632;28;20040;-70
2021/07/04 05:43:44;;;;;;;10.05;8.15;;;;;;;22.32;67.40;100526.47;5061276;28;20047;-70
2021/07/04 05:46:12;;;;;;;17.42;8.77;;;;;;;22.68;66.23;100522.38;5068584;28;20048;-70
2021/07/04 05:48:41;;;;;;;10.75;8.90;;;;;;;22.93;63.73;100520.50;5048997;28;20063;-70
2021/07/04 05:51:09;;;;;;;12.75;9.30;;;;;;;23.70;61.33;100520.66;5043719;28;20079;-69
2021/07/04 05:53:36;;;;;;;12.80;8.70;;;;;;;25.60;54.87;100524.75;5048917;28;20584;-69
2021/07/04 05:56:03;;;;;;;11.35;8.75;;;;;;;26.38;51.82;100522.19;5063203;28;20048;-68
2021/07/04 05:58:31;;;;;;;11.88;8.73;;;;;;;26.19;51.71;100529.91;5046411;28;20060;-69
2021/07/04 06:00:58;;;;;;;8.63;7.72;;;;;;;26.81;50.52;100522.94;5040984;28;20048;-69
2021/07/04 06:03:26;;;;;;;11.02;8.63;;;;;;;28.02;45.78;100526.72;5066210;28;20046;-71
2021/07/04 06:05:53;;;;;;;11.85;7.95;;;;;;;29.12;42.92;100527.03;5067347;28;20544;-70
2021/07/04 06:08:21;;;;;;;10.50;8.45;;;;;;;29.92;40.50;100532.06;5049265;28;20507;-70
2021/07/04 06:10:51;;;;;;;11.10;8.52;;;;;;;29.45;39.89;100531.47;5069259;28;20056;-69
2021/07/04 06:13:19;;;;;;;9.80;8.38;;;;;;;29.25;36.21;100528.84;5052199;28;20052;-69
2021/07/04 06:15:46;;;;;;;10.27;7.50;;;;;;;29.58;36.48;100526.00;5042176;28;20053;-70
2021/07/04 06:18:14;;;;;;;13.48;7.72;;;;;;;30.37;35.98;100532.78;5048368;28;20053;-68
2021/07/04 06:20:41;;;;;;;13.20;7.40;;;;;;;30.59;34.90;100529.66;5064247;28;20049;-69
2021/07/04 06:23:09;;;;;;;10.20;7.85;;;;;;;29.48;37.49;100536.47;5066580;28;20052;-69
2021/07/04 06:25:36;;;;;;;10.07;7.47;;;;;;;28.54;38.88;100536.94;5060409;28;20044;-70
2021/07/04 06:28:04;;;;;;;9.32;8.02;;;;;;;28.23;40.26;100538.38;5067106;28;20048;-70
2021/07/04 06:30:31;;;;;;;12.27;7.50;;;;;;;28.34;40.24;100535.06;5070445;28;20078;-70
2021/07/04 06:32:59;;;;;;;12.13;8.23;;;;;;;27.54;41.89;100536.78;5072658;28;20060;-69
2021/07/04 06:35:27;;;;;;;13.15;8.00;;;;;;;26.71;43.55;100534.09;5055422;28;20063;-70
2021/07/04 06:37:55;;;;;;;9.60;6.60;;;;;;;26.32;45.07;100540.00;5041627;28;20054;-70
2021/07/04 06:40:23;;;;;;;8.98;6.13;;;;;;;27.03;43.33;100531.78;5074454;28;20054;-68
2021/07/04 06:42:50;;;;;;;11.23;7.78;;;;;;;29.15;39.33;100525.78;5066504;28;20055;-70
2021/07/04 06:45:17;;;;;;;10.15;6.43;;;;;;;31.60;34.51;100533.72;5074361;28;20122;-69
2021/07/04 06:47:46;;;;;;;9.32;6.95;;;;;;;31.26;34.03;100523.25;5070675;28;20044;-70
2021/07/04 06:50:15;;;;;;;11.68;7.22;;;;;;;30.19;35.91;100528.13;5041283;28;20119;-68
2021/07/04 06:52:44;;;;;;;9.43;6.65;;;;;;;29.18;38.29;100517.19;5067595;28;20029;-70
2021/07/04 06:55:12;;;;;;;8.50;6.28;;;;;;;28.99;39.05;100518.94;5051977;28;20050;-69
2021/07/04 06:57:40;;;;;;;11.23;6.78;;;;;;;29.01;39.60;100516.88;5054367;28;20049;-69
2021/07/04 07:00:09;;;;;;;8.05;6.93;;;;;;;28.71;40.17;100521.91;5065161;28;20044;-69
2021/07/04 07:02:37;;;;;;;11.20;6.28;;;;;;;28.37;40.46;100517.56;5073144;28;20059;-70
2021/07/04 07:05:07;;;;;;;13.85;6.80;;;;;;;29.37;37.52;100513.59;5073727;28;20040;-70
2021/07/04 07:07:34;;;;;;;8.35;6.65;;;;;;;30.81;34.54;100501.00;5045923;28;20056;-69
2021/07/04 07:10:04;;;;;;;7.30;6.25;;;;;;;31.12;33.62;100504.63;5050732;28;20074;-70
2021/07/04 07:12:32;;;;;;;6.88;5.47;;;;;;;32.14;31.96;100508.19;5052468;28;20063;-69
2021/07/04 07:14:59;;;;;;;6.72;5.93;;;;;;;32.43;30.93;100505.66;5069653;28;20063;-72
2021/07/04 07:17:26;;;;;;;8.05;5.15;;;;;;;33.36;29.66;100503.78;5040670;28;20055;-69
2021/07/04 07:19:54;;;;;;;7.03;5.05;;;;;;;33.69;28.22;100503.09;5064456;28;20055;-69
2021/07/04 07:22:21;;;;;;;5.57;4.72;;;;;;;33.10;28.76;100506.03;5080708;28;20131;-71
2021/07/04 07:24:49;;;;;;;5.15;3.92;;;;;;;33.86;26.95;100506.63;5073291;28;20078;-69
2021/07/04 07:27:17;;;;;;;5.07;4.00;;;;;;;36.64;22.56;100505.84;5072733;28;20051;-69
2021/07/04 07:29:44;;;;;;;6.82;3.83;;;;;;;36.75;21.61;100502.06;5070442;28;20037;-70
2021/07/04 07:32:11;;;;;;;3.13;2.30;;;;;;;35.09;21.81;100495.69;5074414;28;20040;-70
2021/07/04 07:34:39;;;;;;;2.75;2.45;;;;;;;33.59;23.98;100492.78;5072534;28;21089;-69
2021/07/04 07:37:06;;;;;;;4.40;3.17;;;;;;;33.67;25.00;100495.13;5067782;28;20410;-69
2021/07/04 07:39:39;;;;;;;5.30;3.95;;;;;;;33.89;25.55;100491.69;5050671;28;20059;-70
2021/07/04 07:42:07;;;;;;;4.30;3.90;;;;;;;35.19;24.74;100492.22;5079623;28;20056;-71
2021/07/04 07:44:34;;;;;;;5.03;4.53;;;;;;;34.04;25.51;100491.13;5048353;28;20045;-69
2021/07/04 07:47:03;;;;;;;5.85;4.32;;;;;;;35.76;23.68;100484.34;5078863;28;20564;-70
2021/07/04 07:49:30;;;;;;;4.60;3.75;;;;;;;36.32;22.59;100483.97;5066742;28;20064;-68
2021/07/04 07:51:59;;;;;;;7.32;4.47;;;;;;;35.59;23.47;100489.13;5081449;28;20724;-69
2021/07/04 07:54:27;;;;;;;5.15;4.65;;;;;;;36.31;22.48;100486.97;5070776;28;20067;-70
2021/07/04 07:56:54;;;;;;;7.03;4.60;;;;;;;37.47;21.53;100481.22;5070098;28;20044;-70
2021/07/04 07:59:22;;;;;;;6.93;4.22;;;;;;;37.08;21.88;100480.81;5069680;28;20058;-68
2021/07/04 08:01:49;;;;;;;4.43;4.03;;;;;;;38.47;20.07;100482.59;5061048;28;20056;-68
2021/07/04 08:04:17;;;;;;;6.05;4.35;;;;;;;38.67;20.00;100482.50;5073641;28;20036;-69
2021/07/04 08:06:44;;;;;;;4.65;4.25;;;;;;;39.68;19.32;100479.56;5070930;28;20600;-69
2021/07/04 08:09:12;;;;;;;6.97;4.43;;;;;;;35.66;22.69;100472.47;5078111;28;20093;-69
2021/07/04 08:11:39;;;;;;;4.55;4.05;;;;;;;34.94;23.71;100477.13;5072256;28;20049;-68
2021/07/04 08:14:07;;;;;;;6.82;4.35;;;;;;;34.28;24.21;100476.22;5077274;28;20050;-68
2021/07/04 08:16:34;;;;;;;6.90;4.60;;;;;;;36.73;21.95;100460.34;5072728;28;20549;-70
2021/07/04 08:19:02;;;;;;;4.13;3.75;;;;;;;38.03;20.41;100465.88;5063802;28;20045;-69
2021/07/04 08:21:29;;;;;;;4.60;4.20;;;;;;;37.61;20.20;100464.22;5075400;28;20068;-70
2021/07/04 08:23:57;;;;;;;9.32;4.28;;;;;;;36.19;22.24;100460.56;5071762;28;20040;-67
2021/07/04 08:26:24;;;;;;;4.38;3.65;;;;;;;34.62;23.64;100466.06;5073272;28;20040;-70
2021/07/04 08:28:52;;;;;;;5.70;3.78;;;;;;;31.84;28.72;100459.28;5059435;28;20040;-69
2021/07/04 08:31:21;;;;;;;5.07;4.00;;;;;;;32.01;28.53;100459.38;5053886;28;20131;-72
2021/07/04 08:33:50;;;;;;;4.97;3.72;;;;;;;32.50;27.22;100449.09;5054562;28;20558;-70
2021/07/04 08:36:17;;;;;;;6.03;3.58;;;;;;;31.93;27.85;100449.69;5077812;28;20559;-69
2021/07/04 08:38:44;;;;;;;5.57;4.10;;;;;;;31.42;28.56;100455.69;5070578;28;20055;-69
2021/07/04 08:41:13;;;;;;;6.22;4.18;;;;;;;31.92;28.22;100453.47;5060057;28;20048;-69
2021/07/04 08:43:40;;;;;;;4.25;3.85;;;;;;;31.01;29.93;100447.22;5074162;28;20041;-69
2021/07/04 08:46:11;;;;;;;9.32;3.95;;;;;;;31.57;29.57;100442.50;5052550;28;20050;-68
2021/07/04 08:48:40;;;;;;;4.60;3.95;;;;;;;31.44;29.77;100435.38;5057346;28;20053;-69
2021/07/04 08:51:09;;;;;;;6.13;3.75;;;;;;;31.76;29.38;100433.19;5053933;28;20401;-70
2021/07/04 08:53:37;;;;;;;5.18;4.00;;;;;;;31.89;28.45;100424.00;5076120;28;20552;-69
2021/07/04 08:56:05;;;;;;;10.40;4.03;;;;;;;30.77;29.95;100426.44;5051534;28;20049;-69
2021/07/04 08:58:32;;;;;;;5.20;4.70;;;;;;;29.74;30.87;100435.94;5068901;28;20058;-70
2021/07/04 09:01:22;;;;;;;6.00;3.55;;;;;;;29.57;32.58;100437.53;5069878;28;20044;-69
2021/07/04 09:03:51;;;;;;;5.55;3.92;;;;;;;30.14;30.63;100437.53;5036576;28;20052;-70
2021/07/04 09:06:41;;;;;;;6.65;4.10;;;;;;;30.15;31.72;100429.16;5075497;28;20413;-68
2021/07/04 09:09:27;;;;;;;10.55;4.78;;;;;;;29.29;33.82;100432.47;5076449;28;20044;-69
2021/07/04 09:12:06;;;;;;;5.93;3.88;;;;;;;29.09;34.47;100423.63;5071293;28;20051;-69
2021/07/04 09:14:42;;;;;;;3.45;3.15;;;;;;;29.80;33.33;100425.25;5073887;28;20059;-68
2021/07/04 09:17:34;;;;;;;4.53;3.60;;;;;;;29.30;33.56;100422.47;5053808;28;20060;-69
2021/07/04 09:20:07;;;;;;;5.70;4.05;;;;;;;28.86;34.48;100426.81;5065407;28;20119;-69
2021/07/04 09:22:38;;;;;;;4.60;3.88;;;;;;;28.98;34.07;100431.38;5071034;28;20049;-69
2021/07/04 09:25:17;;;;;;;4.18;3.45;;;;;;;28.76;34.22;100432.69;5065699;28;20044;-68
2021/07/04 09:28:12;;;;;;;5.13;3.78;;;;;;;28.55;35.10;100425.72;5055572;28;20449;-69
2021/07/04 09:30:46;;;;;;;3.83;3.30;;;;;;;28.98;34.55;100425.13;5064257;28;20052;-69
2021/07/04 09:33:16;;;;;;;6.85;4.40;;;;;;;28.91;34.27;100424.28;5074956;28;20047;-70
2021/07/04 09:36:01;;;;;;;6.05;3.60;;;;;;;28.68;34.33;100420.22;5072567;28;20713;-70
2021/07/04 09:38:39;;;;;;;5.68;4.03;;;;;;;29.41;33.75;100419.06;5065790;28;20051;-69
2021/07/04 09:41:12;;;;;;;6.13;4.28;;;;;;;29.93;33.22;100420.56;5076828;28;20048;-70
2021/07/04 09:43:40;;;;;;;5.20;3.42;;;;;;;29.74;33.07;100422.38;5066275;28;20045;-69
2021/07/04 09:46:14;;;;;;;5.25;3.95;;;;;;;29.45;33.20;100418.41;5068663;28;20048;-69
2021/07/04 09:48:47;;;;;;;12.05;4.40;;;;;;;29.66;32.42;100414.50;5048840;28;20054;-69
2021/07/04 09:51:16;;;;;;;5.18;3.60;;;;;;;29.75;33.51;100418.59;5055277;28;20058;-69
2021/07/04 09:53:49;;;;;;;7.15;4.38;;;;;;;29.57;32.62;100413.13;5057600;28;20048;-70
2021/07/04 09:56:23;;;;;;;4.88;3.65;;;;;;;30.15;31.97;100396.56;5068976;28;20578;-71
2021/07/04 09:58:52;;;;;;;6.87;4.70;;;;;;;29.70;32.08;100401.34;5054013;28;20352;-68
2021/07/04 10:01:43;;;;;;;4.50;4.07;;;;;;;30.34;31.15;100400.13;5077382;28;20461;-69
2021/07/04 10:04:37;;;;;;;6.22;3.55;;;;;;;30.49;31.23;100391.63;5056373;28;20081;-68
2021/07/04 10:07:05;;;;;;;4.95;3.55;;;;;;;31.04;30.54;100391.56;5056667;28;20053;-69
2021/07/04 10:09:33;;;;;;;4.50;4.10;;;;;;;29.75;32.28;100402.34;5056014;28;20086;-69
2021/07/04 10:12:01;;;;;;;6.97;3.72;;;;;;;29.71;32.55;100397.56;5043088;28;20051;-69
2021/07/04 10:14:28;;;;;;;6.07;4.10;;;;;;;29.04;34.16;100394.44;5056669;28;20040;-71
2021/07/04 10:16:56;;;;;;;3.92;3.38;;;;;;;29.99;32.46;100388.97;5070999;28;20047;-70
2021/07/04 10:19:25;;;;;;;6.97;4.13;;;;;;;30.15;32.52;100387.59;5065324;28;20075;-70
2021/07/04 10:22:03;;;;;;;4.65;4.15;;;;;;;30.24;31.93;100395.22;5058153;28;20359;-69
2021/07/04 10:24:31;;;;;;;4.18;3.78;;;;;;;29.75;32.58;100391.47;5068841;28;20679;-69
2021/07/04 10:27:02;;;;;;;5.38;3.90;;;;;;;30.17;32.06;100388.19;5073860;28;20058;-69
2021/07/04 10:29:31;;;;;;;5.88;4.43;;;;;;;30.25;31.50;100383.28;5054527;28;20080;-69
2021/07/04 10:32:13;;;;;;;4.88;3.95;;;;;;;30.53;31.53;100381.94;5059912;28;20046;-70
2021/07/04 10:34:45;;;;;;;4.72;3.38;;;;;;;29.59;32.38;100374.94;5071218;28;20044;-70
2021/07/04 10:37:13;;;;;;;6.03;4.20;;;;;;;29.62;32.16;100380.75;5071321;28;20051;-68
2021/07/04 10:39:41;;;;;;;6.25;4.15;;;;;;;29.51;32.33;100376.00;5035063;28;20136;-70
2021/07/04 10:42:10;;;;;;;5.07;3.92;;;;;;;29.48;32.58;100371.84;5047271;28;20041;-70
2021/07/04 10:44:44;;;;;;;6.53;3.75;;;;;;;29.50;33.21;100371.66;5043164;28;20047;-71
2021/07/04 10:47:24;;;;;;;6.57;4.65;;;;;;;29.70;32.19;100361.47;5043414;28;20053;-69
2021/07/04 10:50:06;;;;;;;5.38;4.22;;;;;;;29.00;32.90;100358.03;5076393;28;20068;-70
2021/07/04 10:52:33;;;;;;;4.57;3.92;;;;;;;28.98;33.12;100358.22;5076891;28;20062;-71
2021/07/04 10:55:06;;;;;;;6.03;4.43;;;;;;;29.37;32.42;100360.91;5075213;28;20047;-70
2021/07/04 10:57:36;;;;;;;5.20;4.70;;;;;;;29.51;32.24;100366.00;5066171;28;20535;-72
2021/07/04 11:00:03;;;;;;;4.45;4.05;;;;;;;29.32;33.69;100356.13;5065699;28;20048;-70
2021/07/04 11:02:48;;;;;;;5.78;4.75;;;;;;;29.83;31.96;100349.69;5074063;28;20060;-69
2021/07/04 11:05:40;;;;;;;5.13;4.15;;;;;;;29.65;32.71;100350.47;5069640;28;20059;-68
2021/07/04 11:08:21;;;;;;;7.60;4.68;;;;;;;29.19;33.67;100351.63;5058100;28;20239;-70
2021/07/04 11:10:49;;;;;;;5.88;3.97;;;;;;;28.75;35.01;100352.47;5074034;28;20074;-68
2021/07/04 11:13:16;;;;;;;5.32;4.60;;;;;;;28.29;35.46;100364.31;5073536;28;20040;-70
2021/07/04 11:15:46;;;;;;;5.47;4.53;;;;;;;27.85;36.63;100357.72;5074734;28;20495;-70
2021/07/04 11:18:18;;;;;;;4.78;4.25;;;;;;;27.61;37.04;100340.25;5064145;28;20082;-70
2021/07/04 11:20:49;;;;;;;5.15;3.85;;;;;;;27.30;38.10;100353.53;5069106;28;20055;-70
2021/07/04 11:23:20;;;;;;;9.88;5.25;;;;;;;27.92;36.81;100349.56;5068750;28;20095;-69
2021/07/04 11:25:56;;;;;;;5.22;4.22;;;;;;;27.58;36.91;100346.06;5064275;28;20040;-69
2021/07/04 11:28:27;;;;;;;5.10;3.88;;;;;;;28.00;36.55;100341.25;5065222;28;20351;-69
2021/07/04 11:31:07;;;;;;;5.35;4.60;;;;;;;27.55;36.38;100346.47;5048205;28;20614;-69
2021/07/04 11:33:45;;;;;;;5.88;4.20;;;;;;;27.37;36.62;100344.38;5067154;28;20353;-72